Fort Kent Mills, ME (04744)

12:12 PM EST on November 23, 2014 (GMT -0500)
Apex Wx | Change Station
CLOSE
Current Station
Personal Weather Station
Location: Fort Kent, ME
Elevation: 541 ft
Nearby Weather Stations

Elev 541 ft 47.25 °N, 68.58 °W | Updated 6 seconds ago

Overcast
Overcast
40.3 °F
Feels Like 40 °F
N
2.0
Wind Variable Wind from WSW
Gusts 6.0 mph

Today
High -- | Low -- °F
--% Chance of Precip.
Yesterday
High -- | Low -- °F
Precip. -- in
6:49 AM 3:51 PM
New Moon, 2% visible
Pressure 29.94 in
Visibility 10.0 miles
Clouds Overcast 4100 ft
Windchill 40 °F
Dew Point 34 °F
Humidity 77%
Rainfall 0.09 in
Snow Depth Not available.
UV 1 out of 12
Pollen .10 out of 12
Air Quality Not available.
Flu Activity Not available.
METAR KFVE 231653Z AUTO 19006KT 10SM OVC041 01/M02 A2991 RMK AO2 PRESFR SLP139 T00111017

More Conditions Fewer Conditions

Pressure 29.94 in
Visibility 10.0 miles
Clouds Overcast 4100 ft
Windchill 40 °F
Dew Point 34 °F
Humidity 77%
Rainfall 0.09 in
Snow Depth Not available.
UV 1 out of 12
Pollen .10 out of 12
Air Quality Not available.
Flu Activity Not available.
METAR KFVE 231653Z AUTO 19006KT 10SM OVC041 01/M02 A2991 RMK AO2 PRESFR SLP139 T00111017

More Conditions Fewer Conditions

10-Day Weather Forecast

Almanac

Astronomy

Nov. 23, 2014 Rise Set
Actual Time
Civil Twilight
Nautical Twilight
Astronomical Twilight
Moon
Length of Visible Light
Length of Day
Tomorrow will be .
, % of the Moon is Illuminated

Today's Extremes

State Highs State Lows

Community

WunderPhotos

Upload Photos

1,773,104 photos uploaded!

WunderBlogs® & News

Nearby

Air Quality

  Air Quality AQ Index Pollutant
Not available.

Snow Depth

Station Depth Elevation

Earthquake Activity

City Distance Mag. Time & Date
Minimum magnitude displayed is 2.5.

Coastal Water Temperatures

Place Temperature

Nearby Weather Stations